Time;durP1;ratioP1;P1;durP2;ratioP2;P2;SDS_P1;SDS_P2;PMS_P1;PMS_P2;Temp;Humidity;BMP_temperature;BMP_pressure;BME280_temperature;BME280_humidity;BME280_pressure;Samples;Min_cycle;Max_cycle;Signal;HPM_P1;HPM_P2
2023/11/07 00:01:11;;;;;;;;;;;7.90;90.30;;;;;;5108012;28;19966;-72
2023/11/07 00:03:36;;;;;;;;;;;7.90;90.30;;;;;;5107855;28;20003;-72
2023/11/07 00:06:03;;;;;;;;;;;8.00;90.40;;;;;;5107705;28;19916;-72
2023/11/07 00:08:29;;;;;;;;;;;8.00;90.40;;;;;;5107608;28;20294;-71
2023/11/07 00:10:55;;;;;;;;;;;8.10;90.40;;;;;;5108150;28;19986;-72
2023/11/07 00:13:21;;;;;;;;;;;8.20;90.40;;;;;;5089819;28;19912;-72
2023/11/07 00:15:47;;;;;;;;;;;8.30;90.40;;;;;;5107832;28;19919;-72
2023/11/07 00:18:12;;;;;;;;;;;8.30;90.30;;;;;;5107819;28;19919;-72
2023/11/07 00:20:38;;;;;;;;;;;8.40;90.30;;;;;;5109436;28;20029;-71
2023/11/07 00:23:04;;;;;;;;;;;8.40;90.30;;;;;;5111010;28;20329;-72
2023/11/07 00:25:29;;;;;;;;;;;8.40;90.30;;;;;;5092915;28;19923;-71
2023/11/07 00:27:55;;;;;;;;;;;8.40;90.30;;;;;;5111312;28;19923;-72
2023/11/07 00:30:21;;;;;;;;;;;8.50;90.30;;;;;;5111362;28;19994;-72
2023/11/07 00:32:46;;;;;;;;;;;8.50;90.30;;;;;;5111065;28;19911;-72
2023/11/07 00:35:12;;;;;;;;;;;8.50;90.30;;;;;;5111162;28;20082;-72
2023/11/07 00:37:39;;;;;;;;;;;8.40;90.20;;;;;;5111198;28;20513;-72
2023/11/07 00:40:06;;;;;;;;;;;8.30;90.20;;;;;;5111129;28;19912;-72
2023/11/07 00:42:34;;;;;;;;;;;8.30;90.20;;;;;;5110824;28;20364;-72
2023/11/07 00:45:00;;;;;;;;;;;8.30;90.30;;;;;;5110989;28;20016;-71
2023/11/07 00:47:25;;;;;;;;;;;8.20;90.30;;;;;;5092644;28;20392;-72
2023/11/07 00:49:52;;;;;;;;;;;8.20;90.30;;;;;;5110912;28;20021;-72
2023/11/07 00:52:18;;;;;;;;;;;8.20;90.30;;;;;;5110835;28;19912;-72
2023/11/07 00:54:44;;;;;;;;;;;8.20;90.40;;;;;;5110731;28;19949;-72
2023/11/07 00:57:09;;;;;;;;;;;8.20;90.40;;;;;;5111066;28;19924;-71
2023/11/07 00:59:35;;;;;;;;;;;8.20;90.40;;;;;;5110789;28;20352;-72
2023/11/07 01:02:03;;;;;;;;;;;8.30;90.40;;;;;;5110717;28;19912;-72
2023/11/07 01:04:28;;;;;;;;;;;8.30;90.40;;;;;;5110747;28;19916;-72
2023/11/07 01:06:54;;;;;;;;;;;8.30;90.30;;;;;;5092141;28;20380;-72
2023/11/07 01:09:19;;;;;;;;;;;8.30;90.30;;;;;;5092178;28;20046;-72
2023/11/07 01:11:45;;;;;;;;;;;8.30;90.30;;;;;;5092319;28;19912;-72
2023/11/07 01:14:11;;;;;;;;;;;8.30;90.40;;;;;;5110651;28;19912;-72
2023/11/07 01:16:36;;;;;;;;;;;8.30;90.40;;;;;;5110324;28;20003;-72
2023/11/07 01:19:03;;;;;;;;;;;8.30;90.40;;;;;;5110402;28;20006;-72
2023/11/07 01:21:29;;;;;;;;;;;8.40;90.40;;;;;;5110313;28;20329;-72
2023/11/07 01:23:54;;;;;;;;;;;8.40;90.40;;;;;;5091985;28;19962;-71
2023/11/07 01:26:20;;;;;;;;;;;8.50;90.40;;;;;;5092067;28;20253;-72
2023/11/07 01:28:45;;;;;;;;;;;8.50;90.40;;;;;;5110108;28;20031;-72
2023/11/07 01:31:11;;;;;;;;;;;8.50;90.50;;;;;;5110174;28;19912;-72
2023/11/07 01:33:36;;;;;;;;;;;8.50;90.30;;;;;;5110081;28;19918;-72
2023/11/07 01:36:02;;;;;;;;;;;8.50;90.30;;;;;;5109983;28;19915;-72
2023/11/07 01:38:28;;;;;;;;;;;8.50;90.40;;;;;;5110010;28;19912;-72
2023/11/07 01:40:53;;;;;;;;;;;8.50;90.40;;;;;;5091514;28;20072;-72
2023/11/07 01:43:21;;;;;;;;;;;8.50;90.40;;;;;;5110033;28;20382;-72
2023/11/07 01:45:46;;;;;;;;;;;8.50;90.30;;;;;;5109844;28;19912;-72
2023/11/07 01:48:12;;;;;;;;;;;8.50;90.40;;;;;;5091562;28;19923;-72
2023/11/07 01:50:38;;;;;;;;;;;8.50;90.50;;;;;;5074456;28;20216;-72
2023/11/07 01:53:04;;;;;;;;;;;8.60;90.50;;;;;;5109586;28;19912;-71
2023/11/07 01:55:30;;;;;;;;;;;8.60;90.50;;;;;;5109723;28;20002;-72
2023/11/07 01:57:56;;;;;;;;;;;8.70;90.50;;;;;;5109519;28;20333;-71
2023/11/07 02:00:22;;;;;;;;;;;8.70;90.50;;;;;;5109492;28;20306;-72
2023/11/07 02:02:48;;;;;;;;;;;8.70;90.40;;;;;;5109419;28;19911;-72
2023/11/07 02:05:13;;;;;;;;;;;8.70;90.50;;;;;;5109601;28;20305;-72
2023/11/07 02:07:39;;;;;;;;;;;8.80;90.40;;;;;;5109101;28;20006;-72
2023/11/07 02:10:05;;;;;;;;;;;8.70;90.40;;;;;;5109308;28;20249;-71
2023/11/07 02:12:31;;;;;;;;;;;8.70;90.40;;;;;;5109050;28;19946;-71
2023/11/07 02:14:57;;;;;;;;;;;8.70;90.50;;;;;;5109262;28;19912;-72
2023/11/07 02:17:22;;;;;;;;;;;8.60;90.50;;;;;;5109131;28;19922;-71
2023/11/07 02:19:48;;;;;;;;;;;8.60;90.50;;;;;;5109272;28;20014;-71
2023/11/07 02:22:14;;;;;;;;;;;8.60;90.50;;;;;;5091049;28;19908;-72
2023/11/07 02:24:39;;;;;;;;;;;8.70;90.50;;;;;;5090800;28;20398;-72
2023/11/07 02:27:05;;;;;;;;;;;8.70;90.60;;;;;;5109122;28;19918;-72
2023/11/07 02:29:31;;;;;;;;;;;8.70;90.50;;;;;;5108857;28;19926;-71
2023/11/07 02:31:57;;;;;;;;;;;8.80;90.50;;;;;;5090782;28;19911;-72
2023/11/07 02:34:23;;;;;;;;;;;8.80;90.50;;;;;;5108799;28;19993;-72
2023/11/07 02:36:48;;;;;;;;;;;8.80;90.50;;;;;;5108938;28;20118;-72
2023/11/07 02:39:15;;;;;;;;;;;8.80;90.50;;;;;;5108804;28;19916;-72
2023/11/07 02:41:41;;;;;;;;;;;8.80;90.50;;;;;;5108685;28;19999;-72
2023/11/07 02:44:09;;;;;;;;;;;8.80;90.40;;;;;;5108109;28;20390;-72
2023/11/07 02:46:35;;;;;;;;;;;8.80;90.40;;;;;;5090709;28;19916;-72
2023/11/07 02:49:01;;;;;;;;;;;8.80;90.50;;;;;;5108540;28;19969;-72
2023/11/07 02:51:26;;;;;;;;;;;8.80;90.50;;;;;;5108500;28;19912;-71
2023/11/07 02:53:53;;;;;;;;;;;8.80;90.80;;;;;;5090351;28;19912;-72
2023/11/07 02:56:18;;;;;;;;;;;8.80;90.60;;;;;;5108487;28;19977;-72
2023/11/07 02:58:44;;;;;;;;;;;8.90;90.60;;;;;;5108606;28;20375;-72
2023/11/07 03:01:10;;;;;;;;;;;8.90;90.50;;;;;;5090291;28;20317;-72
2023/11/07 03:03:37;;;;;;;;;;;9.00;90.60;;;;;;5108933;28;19908;-72
2023/11/07 03:06:02;;;;;;;;;;;9.00;90.50;;;;;;5108435;28;19916;-72
2023/11/07 03:08:28;;;;;;;;;;;8.90;90.40;;;;;;5108161;28;20311;-72
2023/11/07 03:10:54;;;;;;;;;;;8.90;90.40;;;;;;5108406;28;19912;-72
2023/11/07 03:13:20;;;;;;;;;;;8.80;90.40;;;;;;5108651;28;19941;-72
2023/11/07 03:15:48;;;;;;;;;;;8.80;90.40;;;;;;5090289;28;19919;-71
2023/11/07 03:18:14;;;;;;;;;;;8.70;90.40;;;;;;5108366;28;19927;-71
2023/11/07 03:20:40;;;;;;;;;;;8.70;90.50;;;;;;5108340;28;19928;-71
2023/11/07 03:23:05;;;;;;;;;;;8.70;90.50;;;;;;5089856;28;19908;-72
2023/11/07 03:25:31;;;;;;;;;;;8.80;90.60;;;;;;5108177;28;19919;-72
2023/11/07 03:27:57;;;;;;;;;;;8.90;90.70;;;;;;5089986;28;20053;-71
2023/11/07 03:30:22;;;;;;;;;;;9.00;90.70;;;;;;5108090;28;19941;-72
2023/11/07 03:32:48;;;;;;;;;;;9.10;90.60;;;;;;5089812;28;19923;-72
2023/11/07 03:35:14;;;;;;;;;;;9.20;90.60;;;;;;5108130;28;19933;-72
2023/11/07 03:37:40;;;;;;;;;;;9.20;90.60;;;;;;5108076;28;19957;-72
2023/11/07 03:40:06;;;;;;;;;;;9.30;90.60;;;;;;5108068;28;19912;-72
2023/11/07 03:42:32;;;;;;;;;;;9.30;90.60;;;;;;5107899;28;19908;-72
2023/11/07 03:44:58;;;;;;;;;;;9.40;90.60;;;;;;5108108;28;19907;-72
2023/11/07 03:47:23;;;;;;;;;;;9.40;90.60;;;;;;5107967;28;19912;-72
2023/11/07 03:49:49;;;;;;;;;;;9.40;90.50;;;;;;5107795;28;19920;-72
2023/11/07 03:52:16;;;;;;;;;;;9.50;90.60;;;;;;5107905;28;20321;-72
2023/11/07 03:54:41;;;;;;;;;;;9.60;90.60;;;;;;5110204;28;19918;-72
2023/11/07 03:57:07;;;;;;;;;;;9.60;90.80;;;;;;5111875;28;19912;-72
2023/11/07 03:59:32;;;;;;;;;;;9.60;90.60;;;;;;5112303;28;19908;-71
2023/11/07 04:02:00;;;;;;;;;;;9.60;90.60;;;;;;5111735;28;20024;-72
2023/11/07 04:04:26;;;;;;;;;;;9.70;90.60;;;;;;5093455;28;20023;-72
2023/11/07 04:06:52;;;;;;;;;;;9.70;90.60;;;;;;5093389;28;20018;-72
2023/11/07 04:09:18;;;;;;;;;;;9.70;90.60;;;;;;5111581;28;19991;-72
2023/11/07 04:11:44;;;;;;;;;;;9.70;90.60;;;;;;5111632;28;19912;-72
2023/11/07 04:14:10;;;;;;;;;;;9.80;90.70;;;;;;5111613;28;19918;-72
2023/11/07 04:16:36;;;;;;;;;;;9.80;90.60;;;;;;5111662;28;19911;-72
2023/11/07 04:19:02;;;;;;;;;;;9.80;90.60;;;;;;5111377;28;19960;-71
2023/11/07 04:21:28;;;;;;;;;;;9.80;90.60;;;;;;5093068;28;19915;-72
2023/11/07 04:23:53;;;;;;;;;;;9.80;90.60;;;;;;5111451;28;19924;-72
2023/11/07 04:26:19;;;;;;;;;;;9.70;90.80;;;;;;5111400;28;19916;-72
2023/11/07 04:28:44;;;;;;;;;;;9.70;90.80;;;;;;5111322;28;19927;-72
2023/11/07 04:31:10;;;;;;;;;;;9.70;90.60;;;;;;5111210;28;19916;-72
2023/11/07 04:33:36;;;;;;;;;;;9.70;90.70;;;;;;5111675;28;19911;-71
2023/11/07 04:36:01;;;;;;;;;;;9.80;90.70;;;;;;5111272;28;20407;-72
2023/11/07 04:38:30;;;;;;;;;;;9.70;90.60;;;;;;5111169;28;19907;-72
2023/11/07 04:40:55;;;;;;;;;;;9.70;90.60;;;;;;5111045;28;20265;-72
2023/11/07 04:43:22;;;;;;;;;;;9.70;90.60;;;;;;5110974;28;19965;-71
2023/11/07 04:45:48;;;;;;;;;;;9.70;90.60;;;;;;5111025;28;19914;-72
2023/11/07 04:48:13;;;;;;;;;;;9.70;90.70;;;;;;5110908;28;20424;-71
2023/11/07 04:50:39;;;;;;;;;;;9.80;90.70;;;;;;5092425;28;19915;-72
2023/11/07 04:53:05;;;;;;;;;;;9.70;90.60;;;;;;5110562;28;20376;-72
2023/11/07 04:55:33;;;;;;;;;;;9.70;90.60;;;;;;5110667;28;19922;-72
2023/11/07 04:57:59;;;;;;;;;;;9.70;90.70;;;;;;5110546;28;19961;-72
2023/11/07 05:00:24;;;;;;;;;;;9.70;90.70;;;;;;5110837;28;20298;-72
2023/11/07 05:02:50;;;;;;;;;;;9.80;90.70;;;;;;5110490;28;19972;-72
2023/11/07 05:05:16;;;;;;;;;;;9.80;90.60;;;;;;5109993;28;19968;-71
2023/11/07 05:07:41;;;;;;;;;;;9.70;90.50;;;;;;5109996;28;19928;-72
2023/11/07 05:10:09;;;;;;;;;;;9.70;90.60;;;;;;5110622;28;19912;-72
2023/11/07 05:12:36;;;;;;;;;;;9.70;90.50;;;;;;5110440;28;20366;-72
2023/11/07 05:15:03;;;;;;;;;;;9.60;90.50;;;;;;5110373;28;20048;-72
2023/11/07 05:17:29;;;;;;;;;;;9.50;90.50;;;;;;5110394;28;19915;-72
2023/11/07 05:19:54;;;;;;;;;;;9.60;90.60;;;;;;5110325;28;20283;-72
2023/11/07 05:22:20;;;;;;;;;;;9.60;90.60;;;;;;5110152;28;20008;-72
2023/11/07 05:24:45;;;;;;;;;;;9.60;90.60;;;;;;5110265;28;19912;-72
2023/11/07 05:27:11;;;;;;;;;;;9.50;90.60;;;;;;5110478;28;19955;-71
2023/11/07 05:29:37;;;;;;;;;;;9.50;90.60;;;;;;5110088;28;20175;-72
2023/11/07 05:32:03;;;;;;;;;;;9.50;90.60;;;;;;5109979;28;19952;-71
2023/11/07 05:34:29;;;;;;;;;;;9.60;90.70;;;;;;5110024;28;19922;-72
2023/11/07 05:36:55;;;;;;;;;;;9.60;90.60;;;;;;5110162;28;20006;-72
2023/11/07 05:39:21;;;;;;;;;;;9.60;90.60;;;;;;5109913;28;19919;-72
2023/11/07 05:41:47;;;;;;;;;;;9.50;90.60;;;;;;5109769;28;19916;-72
2023/11/07 05:44:13;;;;;;;;;;;9.50;90.50;;;;;;5109928;28;19918;-72
2023/11/07 05:46:38;;;;;;;;;;;9.40;90.40;;;;;;5109747;28;19916;-72
2023/11/07 05:49:04;;;;;;;;;;;9.20;90.40;;;;;;5109634;28;20328;-72
2023/11/07 05:51:29;;;;;;;;;;;9.10;90.40;;;;;;5091519;28;19936;-72
2023/11/07 05:53:55;;;;;;;;;;;9.00;90.40;;;;;;5109852;28;19959;-72
2023/11/07 05:56:21;;;;;;;;;;;8.90;90.50;;;;;;5091442;28;19912;-71
2023/11/07 05:58:47;;;;;;;;;;;8.80;90.50;;;;;;5109470;28;20443;-72
2023/11/07 06:01:13;;;;;;;;;;;8.80;90.60;;;;;;5091130;28;20010;-71
2023/11/07 06:03:39;;;;;;;;;;;8.90;90.70;;;;;;5109311;28;19920;-72
2023/11/07 06:06:04;;;;;;;;;;;8.80;90.60;;;;;;5090990;28;19912;-71
2023/11/07 06:08:30;;;;;;;;;;;8.80;90.60;;;;;;5109134;28;19920;-71
2023/11/07 06:10:56;;;;;;;;;;;8.90;90.60;;;;;;5109305;28;19957;-70
2023/11/07 06:13:21;;;;;;;;;;;8.90;90.60;;;;;;5109674;28;19915;-71
2023/11/07 06:15:47;;;;;;;;;;;8.90;90.70;;;;;;5108987;28;20360;-71
2023/11/07 06:18:12;;;;;;;;;;;8.90;90.60;;;;;;5108157;28;20095;-71
2023/11/07 06:20:38;;;;;;;;;;;8.90;90.70;;;;;;5109131;28;20008;-71
2023/11/07 06:23:03;;;;;;;;;;;9.00;90.70;;;;;;5108933;28;19908;-72
2023/11/07 06:25:29;;;;;;;;;;;9.00;90.60;;;;;;5109020;28;19935;-72
2023/11/07 06:27:55;;;;;;;;;;;9.00;90.60;;;;;;5108931;28;19923;-71
2023/11/07 06:30:21;;;;;;;;;;;9.00;90.60;;;;;;5108848;28;20456;-72
2023/11/07 06:32:47;;;;;;;;;;;9.00;90.50;;;;;;5108751;28;19912;-72
2023/11/07 06:35:14;;;;;;;;;;;9.00;90.50;;;;;;5108908;28;20268;-71
2023/11/07 06:37:40;;;;;;;;;;;8.90;90.40;;;;;;5090575;28;20260;-71
2023/11/07 06:40:17;;;;;;;;;;;8.80;90.40;;;;;;5090222;28;19923;-71
2023/11/07 06:42:43;;;;;;;;;;;8.70;90.50;;;;;;5108483;28;19915;-71
2023/11/07 06:45:12;;;;;;;;;;;8.70;90.50;;;;;;5108613;28;19911;-71
2023/11/07 06:47:41;;;;;;;;;;;8.60;90.50;;;;;;5108353;28;20260;-72
2023/11/07 06:50:08;;;;;;;;;;;8.60;90.50;;;;;;5108628;28;19969;-72
2023/11/07 06:52:35;;;;;;;;;;;8.50;90.50;;;;;;5108513;28;19919;-72
2023/11/07 06:55:01;;;;;;;;;;;8.50;90.60;;;;;;5108479;28;19912;-71
2023/11/07 06:57:27;;;;;;;;;;;8.50;90.60;;;;;;5108358;28;19929;-72
2023/11/07 06:59:53;;;;;;;;;;;8.60;90.60;;;;;;5108063;28;19916;-75
2023/11/07 07:02:18;;;;;;;;;;;8.60;90.60;;;;;;5108270;28;19942;-77
2023/11/07 07:04:44;;;;;;;;;;;8.60;90.50;;;;;;5108116;28;19970;-72
2023/11/07 07:07:11;;;;;;;;;;;8.60;90.50;;;;;;5108098;28;19996;-76
2023/11/07 07:09:39;;;;;;;;;;;8.50;90.50;;;;;;5108450;28;20031;-76
2023/11/07 07:12:05;;;;;;;;;;;8.50;90.50;;;;;;5090246;28;19919;-76
2023/11/07 07:14:31;;;;;;;;;;;8.40;90.50;;;;;;5108216;28;19916;-76
2023/11/07 07:16:56;;;;;;;;;;;8.40;90.50;;;;;;5108279;28;19912;-77
2023/11/07 07:19:22;;;;;;;;;;;8.40;90.50;;;;;;5108083;28;20041;-77
2023/11/07 07:21:47;;;;;;;;;;;8.30;90.50;;;;;;5089877;28;19912;-76
2023/11/07 07:24:21;;;;;;;;;;;8.40;90.60;;;;;;5108496;28;20359;-76
2023/11/07 07:26:47;;;;;;;;;;;8.40;90.70;;;;;;5108080;28;19923;-76
2023/11/07 07:29:13;;;;;;;;;;;8.40;90.70;;;;;;5091217;28;19935;-76
2023/11/07 07:31:39;;;;;;;;;;;8.60;90.80;;;;;;5112221;28;20532;-76
2023/11/07 07:34:05;;;;;;;;;;;8.70;90.80;;;;;;5112067;28;19924;-76
2023/11/07 07:36:30;;;;;;;;;;;8.80;90.80;;;;;;5093684;28;19919;-76
2023/11/07 07:38:57;;;;;;;;;;;8.90;90.70;;;;;;5111626;28;19907;-76
2023/11/07 07:41:22;;;;;;;;;;;9.00;90.70;;;;;;5111125;28;19985;-75
2023/11/07 07:43:48;;;;;;;;;;;9.00;90.70;;;;;;5093094;28;19916;-77
2023/11/07 07:46:15;;;;;;;;;;;9.10;90.70;;;;;;5111627;28;20367;-75
2023/11/07 07:48:42;;;;;;;;;;;9.10;90.60;;;;;;5111337;28;19916;-75
2023/11/07 07:51:11;;;;;;;;;;;9.10;90.60;;;;;;5111596;28;19977;-77
2023/11/07 07:53:37;;;;;;;;;;;9.10;90.70;;;;;;5111768;28;19922;-72
2023/11/07 07:56:12;;;;;;;;;;;9.00;90.50;;;;;;5093236;28;19912;-72
2023/11/07 07:59:00;;;;;;;;;;;9.00;90.50;;;;;;5112410;28;19915;-74
2023/11/07 08:01:55;;;;;;;;;;;8.90;90.50;;;;;;5096099;28;19912;-71
2023/11/07 08:04:25;;;;;;;;;;;8.80;90.50;;;;;;5095065;28;19977;-75
2023/11/07 08:06:52;;;;;;;;;;;8.80;90.50;;;;;;5110604;28;20424;-77
2023/11/07 08:09:22;;;;;;;;;;;8.80;90.60;;;;;;5110737;28;19912;-75
2023/11/07 08:11:48;;;;;;;;;;;8.70;90.60;;;;;;5110833;28;19908;-75
2023/11/07 08:14:14;;;;;;;;;;;8.70;90.60;;;;;;5092235;28;19926;-75
2023/11/07 08:16:41;;;;;;;;;;;8.70;90.60;;;;;;5111000;28;19908;-76
2023/11/07 08:19:10;;;;;;;;;;;8.70;90.60;;;;;;5110387;28;19911;-75
2023/11/07 08:21:39;;;;;;;;;;;8.70;90.60;;;;;;5110053;28;19908;-76
2023/11/07 08:24:05;;;;;;;;;;;8.70;90.70;;;;;;5110113;28;19907;-76
2023/11/07 08:26:30;;;;;;;;;;;8.70;90.70;;;;;;5110811;28;19992;-75
2023/11/07 08:28:56;;;;;;;;;;;8.80;90.70;;;;;;5110078;28;20026;-76
2023/11/07 08:31:21;;;;;;;;;;;8.80;90.70;;;;;;5110230;28;19912;-76
2023/11/07 08:33:49;;;;;;;;;;;8.80;90.70;;;;;;5092198;28;19918;-78
2023/11/07 08:36:17;;;;;;;;;;;8.90;90.70;;;;;;5110338;28;19912;-76
2023/11/07 08:38:43;;;;;;;;;;;8.90;90.70;;;;;;5092133;28;19951;-76
2023/11/07 08:41:08;;;;;;;;;;;9.00;90.70;;;;;;5109591;28;20346;-77
2023/11/07 08:43:35;;;;;;;;;;;9.00;90.70;;;;;;5110550;28;19919;-76
2023/11/07 08:46:01;;;;;;;;;;;9.10;90.70;;;;;;5110551;28;20351;-77
2023/11/07 08:48:27;;;;;;;;;;;9.10;90.70;;;;;;5110572;28;19923;-77
2023/11/07 08:50:52;;;;;;;;;;;9.20;90.80;;;;;;5109724;28;20395;-78
2023/11/07 08:53:18;;;;;;;;;;;9.20;90.80;;;;;;5091761;28;20315;-77
2023/11/07 08:55:44;;;;;;;;;;;9.30;90.80;;;;;;5109816;28;20319;-76
2023/11/07 08:58:09;;;;;;;;;;;9.40;90.90;;;;;;5109953;28;19923;-77
2023/11/07 09:00:35;;;;;;;;;;;9.60;91.20;;;;;;5109961;28;19912;-77
2023/11/07 09:03:02;;;;;;;;;;;10.20;91.80;;;;;;5109913;28;19908;-75
2023/11/07 09:05:28;;;;;;;;;;;11.10;92.20;;;;;;5110064;28;19957;-76
2023/11/07 09:07:54;;;;;;;;;;;12.00;92.20;;;;;;5110629;28;19924;-77
2023/11/07 09:10:20;;;;;;;;;;;12.90;92.10;;;;;;5112937;28;19912;-81
2023/11/07 09:12:46;;;;;;;;;;;13.60;91.90;;;;;;5094578;28;19911;-81
2023/11/07 09:15:12;;;;;;;;;;;14.10;91.70;;;;;;5113814;28;19961;-80
2023/11/07 09:17:41;;;;;;;;;;;14.60;91.50;;;;;;5093276;28;19915;-76
2023/11/07 09:20:11;;;;;;;;;;;15.00;91.40;;;;;;5109602;28;19996;-74
2023/11/07 09:22:37;;;;;;;;;;;15.30;91.20;;;;;;5109777;28;19932;-75
2023/11/07 09:25:04;;;;;;;;;;;15.40;91.00;;;;;;5110491;28;19927;-74
2023/11/07 09:27:29;;;;;;;;;;;15.60;91.30;;;;;;5095043;28;19915;-75
2023/11/07 09:29:56;;;;;;;;;;;15.80;91.30;;;;;;5110016;28;20341;-75
2023/11/07 09:32:22;;;;;;;;;;;16.10;91.50;;;;;;5109818;28;19915;-75
2023/11/07 09:34:48;;;;;;;;;;;16.40;91.60;;;;;;5109449;28;20284;-72
2023/11/07 09:37:15;;;;;;;;;;;16.80;91.70;;;;;;5109793;28;19942;-75
2023/11/07 09:39:41;;;;;;;;;;;17.10;91.60;;;;;;5075063;28;20332;-75
2023/11/07 09:42:07;;;;;;;;;;;17.50;91.70;;;;;;5091197;28;20004;-75
2023/11/07 09:44:39;;;;;;;;;;;17.70;91.50;;;;;;5109285;28;19917;-75
2023/11/07 09:47:05;;;;;;;;;;;17.90;91.50;;;;;;5097600;28;20323;-75
2023/11/07 09:49:34;;;;;;;;;;;18.10;91.50;;;;;;5110442;28;20028;-74
2023/11/07 09:52:04;;;;;;;;;;;18.30;91.50;;;;;;5109823;28;19907;-74
2023/11/07 09:54:32;;;;;;;;;;;18.40;91.50;;;;;;5090298;28;19911;-74
2023/11/07 09:57:00;;;;;;;;;;;18.70;91.60;;;;;;5107586;28;20221;-75
2023/11/07 09:59:49;;;;;;;;;;;19.00;91.80;;;;;;5089038;28;20251;-75
2023/11/07 10:02:15;;;;;;;;;;;19.20;91.70;;;;;;5091184;28;19911;-75
2023/11/07 10:04:42;;;;;;;;;;;19.30;91.60;;;;;;5107713;28;20002;-75
2023/11/07 10:07:08;;;;;;;;;;;19.50;91.70;;;;;;5087714;28;19920;-76
2023/11/07 10:09:33;;;;;;;;;;;19.60;91.70;;;;;;5070868;28;20376;-75
2023/11/07 10:12:00;;;;;;;;;;;19.80;91.80;;;;;;5107078;28;19942;-75
2023/11/07 10:14:26;;;;;;;;;;;20.00;91.80;;;;;;5109632;28;19922;-76
2023/11/07 10:16:59;;;;;;;;;;;20.20;91.90;;;;;;5090094;28;20356;-75
2023/11/07 10:19:25;;;;;;;;;;;20.40;92.00;;;;;;5108427;28;19914;-77
2023/11/07 10:21:51;;;;;;;;;;;20.60;91.90;;;;;;5108101;28;19915;-75
2023/11/07 10:24:17;;;;;;;;;;;20.60;91.70;;;;;;5090754;28;19951;-75
2023/11/07 10:26:53;;;;;;;;;;;20.60;91.80;;;;;;5109509;28;19916;-75
2023/11/07 10:29:25;;;;;;;;;;;20.70;91.90;;;;;;5110350;28;20584;-76
2023/11/07 10:31:59;;;;;;;;;;;20.80;92.10;;;;;;5092762;28;19936;-77
2023/11/07 10:34:26;;;;;;;;;;;21.00;91.90;;;;;;5107826;28;20015;-76
2023/11/07 10:37:01;;;;;;;;;;;21.00;91.90;;;;;;5109708;28;20345;-80
2023/11/07 10:39:27;;;;;;;;;;;21.10;92.10;;;;;;5094960;28;19932;-79
2023/11/07 10:41:54;;;;;;;;;;;21.20;92.10;;;;;;5112694;28;19908;-80
2023/11/07 10:44:28;;;;;;;;;;;21.40;92.10;;;;;;5114932;28;20380;-79
2023/11/07 10:46:55;;;;;;;;;;;21.60;92.30;;;;;;5116097;28;19938;-79
2023/11/07 10:49:21;;;;;;;;;;;21.80;92.30;;;;;;5113440;28;19994;-79
2023/11/07 10:51:48;;;;;;;;;;;22.00;92.20;;;;;;5094914;28;19908;-80
2023/11/07 10:54:14;;;;;;;;;;;21.90;92.00;;;;;;5114873;28;19908;-80
2023/11/07 10:56:44;;;;;;;;;;;22.00;92.30;;;;;;5116400;28;19914;-80
2023/11/07 10:59:26;;;;;;;;;;;22.00;92.20;;;;;;5097941;28;19915;-79
2023/11/07 11:01:52;;;;;;;;;;;22.10;92.30;;;;;;5112460;28;19912;-78
2023/11/07 11:04:22;;;;;;;;;;;22.10;92.40;;;;;;5093853;28;19912;-80
2023/11/07 11:06:52;;;;;;;;;;;22.20;92.50;;;;;;5109949;28;19942;-67
2023/11/07 11:09:18;;;;;;;;;;;22.30;92.50;;;;;;5100576;28;19930;-74
2023/11/07 11:11:46;;;;;;;;;;;22.30;92.30;;;;;;5108984;28;20379;-76
2023/11/07 11:14:12;;;;;;;;;;;22.30;92.50;;;;;;5109290;28;19919;-76
2023/11/07 11:16:39;;;;;;;;;;;22.30;92.50;;;;;;5109561;28;19908;-75
2023/11/07 11:19:23;;;;;;;;;;;22.30;92.30;;;;;;5109208;28;19915;-75
2023/11/07 11:21:54;;;;;;;;;;;22.10;92.30;;;;;;5108433;28;20010;-76
2023/11/07 11:24:19;;;;;;;;;;;22.20;92.50;;;;;;5100587;28;19908;-77
2023/11/07 11:26:58;;;;;;;;;;;22.30;92.70;;;;;;5110663;28;20633;-79
2023/11/07 11:29:28;;;;;;;;;;;22.40;92.80;;;;;;5113929;28;19912;-78
2023/11/07 11:31:54;;;;;;;;;;;22.60;92.70;;;;;;5094387;28;19908;-75
2023/11/07 11:34:20;;;;;;;;;;;22.50;92.60;;;;;;5092092;28;19947;-78
2023/11/07 11:36:51;;;;;;;;;;;22.50;92.50;;;;;;5113276;28;19912;-81
2023/11/07 11:39:26;;;;;;;;;;;22.40;92.70;;;;;;5093566;28;19994;-81
2023/11/07 11:41:56;;;;;;;;;;;22.40;92.70;;;;;;5093329;28;19915;-80
2023/11/07 11:44:24;;;;;;;;;;;22.30;92.90;;;;;;5076562;28;19918;-81
2023/11/07 11:46:55;;;;;;;;;;;22.20;92.60;;;;;;5111592;28;19910;-81
2023/11/07 11:49:23;;;;;;;;;;;22.20;92.80;;;;;;5110765;28;19912;-79
2023/11/07 11:51:53;;;;;;;;;;;22.30;92.90;;;;;;5111448;28;19912;-79
2023/11/07 11:54:21;;;;;;;;;;;22.40;92.80;;;;;;5110095;28;19916;-75
2023/11/07 11:56:50;;;;;;;;;;;22.40;92.80;;;;;;5091882;28;19937;-78
2023/11/07 11:59:39;;;;;;;;;;;22.30;92.80;;;;;;5112094;28;19929;-77
2023/11/07 12:02:05;;;;;;;;;;;22.30;92.90;;;;;;5100551;28;19908;-76
2023/11/07 12:04:32;;;;;;;;;;;22.30;92.80;;;;;;5108842;28;19920;-76
2023/11/07 12:07:10;;;;;;;;;;;22.20;92.70;;;;;;5109238;28;19923;-77
2023/11/07 12:09:36;;;;;;;;;;;22.10;92.80;;;;;;5089982;28;19930;-74
2023/11/07 12:12:02;;;;;;;;;;;21.90;92.70;;;;;;5108151;28;19915;-74
2023/11/07 12:14:37;;;;;;;;;;;21.80;92.90;;;;;;5089885;28;19914;-72
2023/11/07 12:17:03;;;;;;;;;;;21.70;92.70;;;;;;5110819;28;19916;-73
2023/11/07 12:19:29;;;;;;;;;;;21.50;92.70;;;;;;5093319;28;19920;-73
2023/11/07 12:21:56;;;;;;;;;;;21.40;92.70;;;;;;5110452;28;19915;-72
2023/11/07 12:24:22;;;;;;;;;;;21.00;92.20;;;;;;5111209;28;20386;-74
2023/11/07 12:26:48;;;;;;;;;;;20.40;91.90;;;;;;5093356;28;19918;-73
2023/11/07 12:29:27;;;;;;;;;;;20.10;92.50;;;;;;5111354;28;19919;-73
2023/11/07 12:31:52;;;;;;;;;;;19.90;92.40;;;;;;5111287;28;19919;-71
2023/11/07 12:34:28;;;;;;;;;;;19.40;91.90;;;;;;5092864;28;19916;-73
2023/11/07 12:36:54;;;;;;;;;;;18.90;91.90;;;;;;5111457;28;19916;-73
2023/11/07 12:39:21;;;;;;;;;;;18.40;91.80;;;;;;5111044;28;19911;-74
2023/11/07 12:41:47;;;;;;;;;;;17.90;91.80;;;;;;5092972;28;19915;-73
2023/11/07 12:44:13;;;;;;;;;;;17.60;91.80;;;;;;5092685;28;19915;-72
2023/11/07 12:46:39;;;;;;;;;;;17.30;91.80;;;;;;5110753;28;19959;-73
2023/11/07 12:49:04;;;;;;;;;;;17.00;91.70;;;;;;5092312;28;19912;-72
2023/11/07 12:51:35;;;;;;;;;;;16.80;91.80;;;;;;5091414;28;19989;-72
2023/11/07 12:54:01;;;;;;;;;;;16.60;92.00;;;;;;5089759;28;19915;-73
2023/11/07 12:56:27;;;;;;;;;;;16.60;92.10;;;;;;5110224;28;19918;-73
2023/11/07 12:58:53;;;;;;;;;;;16.50;92.10;;;;;;5092324;28;20283;-71
2023/11/07 13:01:23;;;;;;;;;;;16.50;92.10;;;;;;5110588;28;19919;-73
2023/11/07 13:03:49;;;;;;;;;;;16.50;92.10;;;;;;5110367;28;19919;-71
2023/11/07 13:06:19;;;;;;;;;;;16.50;92.00;;;;;;5110667;28;19911;-73
2023/11/07 13:08:44;;;;;;;;;;;16.50;92.30;;;;;;5110141;28;20022;-71
2023/11/07 13:11:12;;;;;;;;;;;16.70;92.50;;;;;;5092303;28;20006;-72
2023/11/07 13:13:38;;;;;;;;;;;16.80;92.40;;;;;;5110811;28;19932;-73
2023/11/07 13:16:05;;;;;;;;;;;16.80;92.30;;;;;;5110445;28;19986;-72
2023/11/07 13:18:31;;;;;;;;;;;16.90;92.50;;;;;;5110608;28;19954;-73
2023/11/07 13:20:56;;;;;;;;;;;17.10;92.70;;;;;;5110226;28;19916;-71
2023/11/07 13:23:22;;;;;;;;;;;17.20;92.40;;;;;;5109702;28;20280;-73
2023/11/07 13:25:48;;;;;;;;;;;17.10;92.20;;;;;;5111175;28;19965;-75
2023/11/07 13:28:13;;;;;;;;;;;16.90;92.10;;;;;;5092503;28;19912;-75
2023/11/07 13:30:41;;;;;;;;;;;16.70;91.90;;;;;;5091807;28;19922;-74
2023/11/07 13:33:07;;;;;;;;;;;16.60;92.10;;;;;;5092697;28;19962;-75
2023/11/07 13:35:37;;;;;;;;;;;16.50;92.00;;;;;;5092194;28;19912;-77
2023/11/07 13:38:03;;;;;;;;;;;16.40;92.10;;;;;;5110689;28;20367;-74
2023/11/07 13:40:28;;;;;;;;;;;16.40;92.30;;;;;;5110914;28;19915;-75
2023/11/07 13:42:54;;;;;;;;;;;16.50;92.30;;;;;;5110845;28;19968;-75
2023/11/07 13:45:20;;;;;;;;;;;16.50;92.40;;;;;;5091761;28;19908;-75
2023/11/07 13:47:46;;;;;;;;;;;16.60;92.30;;;;;;5110593;28;19950;-75
2023/11/07 13:50:11;;;;;;;;;;;16.60;92.30;;;;;;5110600;28;19966;-75
2023/11/07 13:52:39;;;;;;;;;;;16.60;92.20;;;;;;5109611;28;19965;-68
2023/11/07 13:55:06;;;;;;;;;;;16.60;92.30;;;;;;5110226;28;20444;-76
2023/11/07 13:57:32;;;;;;;;;;;16.60;92.30;;;;;;5091979;28;19907;-77
2023/11/07 13:59:57;;;;;;;;;;;16.60;92.30;;;;;;5092135;28;19912;-77
2023/11/07 14:02:24;;;;;;;;;;;16.50;92.20;;;;;;5110914;28;19908;-77
2023/11/07 14:04:49;;;;;;;;;;;16.30;91.90;;;;;;5110147;28;19954;-72
2023/11/07 14:07:16;;;;;;;;;;;16.10;91.60;;;;;;5109071;28;19925;-72
2023/11/07 14:09:43;;;;;;;;;;;16.00;91.50;;;;;;5090929;28;20499;-75
2023/11/07 14:12:08;;;;;;;;;;;15.70;91.30;;;;;;5109738;28;20593;-75
2023/11/07 14:14:34;;;;;;;;;;;15.50;91.20;;;;;;5110860;28;19908;-76
2023/11/07 14:17:00;;;;;;;;;;;15.40;91.20;;;;;;5110425;28;19912;-73
2023/11/07 14:19:26;;;;;;;;;;;15.20;91.20;;;;;;5110506;28;19923;-77
2023/11/07 14:21:52;;;;;;;;;;;15.10;91.10;;;;;;5091403;28;20006;-76
2023/11/07 14:24:17;;;;;;;;;;;14.90;91.10;;;;;;5091732;28;19919;-73